| time (UTC) | temp F | wind direction | speed knots | gust knots | rain 1hr in | rain 24hr in | rain mn in | humidity % | barometer mb |
| 20260906223704 | 77 | 316 | 1.7 | 7.8 | 0.00 | 0.00 | 0.00 | 47 | 1014.7 |
| 20260906223204 | 77 | 335 | 1.7 | 7.0 | 0.00 | 0.00 | 0.00 | 47 | 1014.8 |
| 20260906220703 | 75 | 281 | 2.6 | 5.2 | 0.00 | 0.00 | 0.00 | 49 | 1014.6 |
| 20260906220205 | 75 | 230 | 0.9 | 7.0 | 0.00 | 0.00 | 0.00 | 49 | 1014.6 |
| 20260906213704 | 75 | 329 | 0.9 | 5.2 | 0.00 | 0.00 | 0.00 | 50 | 1014.7 |
| 20260906213204 | 74 | 314 | 1.7 | 7.0 | 0.00 | 0.00 | 0.00 | 52 | 1014.7 |
| 20260906210704 | 75 | 240 | 1.7 | 4.3 | 0.00 | 0.00 | 0.00 | 51 | 1014.8 |
| 20260906210204 | 75 | 296 | 1.7 | 7.8 | 0.00 | 0.00 | 0.00 | 50 | 1014.8 |
| 20260906203704 | 72 | 288 | 2.6 | 7.0 | 0.00 | 0.00 | 0.00 | 55 | 1015.0 |
| 20260906203204 | 72 | 278 | 2.6 | 7.8 | 0.00 | 0.00 | 0.00 | 55 | 1015.0 |
| 20260906200703 | 72 | 320 | 1.7 | 6.1 | 0.00 | 0.00 | 0.00 | 57 | 1015.1 |
| 20260906200204 | 71 | 342 | 1.7 | 8.7 | 0.00 | 0.00 | 0.00 | 56 | 1015.1 |
| 20260906193704 | 69 | 305 | 4.3 | 8.7 | 0.00 | 0.00 | 0.00 | 59 | 1015.3 |
| 20260906193204 | 69 | 287 | 1.7 | 10.4 | 0.00 | 0.00 | 0.00 | 60 | 1015.4 |
| 20260906190704 | 69 | 334 | 1.7 | 6.1 | 0.00 | 0.00 | 0.00 | 61 | 1015.7 |
| 20260906190204 | 68 | 348 | 2.6 | 8.7 | 0.00 | 0.00 | 0.00 | 62 | 1015.7 |
| 20260906183704 | 67 | 305 | 1.7 | 4.3 | 0.00 | 0.00 | 0.00 | 67 | 1015.9 |
| 20260906183203 | 66 | 303 | 1.7 | 10.4 | 0.00 | 0.00 | 0.00 | 68 | 1015.9 |
| 20260906180704 | 64 | 329 | 4.3 | 8.7 | 0.00 | 0.00 | 0.00 | 72 | 1015.7 |
| 20260906180205 | 64 | 297 | 3.5 | 7.8 | 0.00 | 0.00 | 0.00 | 72 | 1015.8 |
| 20260906173704 | 63 | 326 | 2.6 | 4.3 | 0.00 | 0.00 | 0.00 | 73 | 1016.1 |
| 20260906170204 | 61 | 336 | 1.7 | 4.3 | 0.00 | 0.00 | 0.00 | 77 | 1016.4 |
| 20260906163204 | 59 | 307 | 0.9 | 2.6 | 0.00 | 0.00 | 0.00 | 79 | 1016.6 |
| 20260906160704 | 58 | 285 | 0.0 | 0.0 | 0.00 | 0.00 | 0.00 | 81 | 1016.4 |
| 20260906160204 | 58 | 285 | 0.0 | 0.0 | 0.00 | 0.00 | 0.00 | 81 | 1016.4 |
| 20260906153703 | 56 | 286 | 0.0 | 0.9 | 0.00 | 0.00 | 0.00 | 84 | 1016.2 |
| 20260906153204 | 56 | 286 | 0.0 | 2.6 | 0.00 | 0.00 | 0.00 | 84 | 1016.1 |
| 20260906150704 | 55 | 94 | 0.0 | 0.0 | 0.00 | 0.00 | 0.00 | 85 | 1016.1 |
| 20260906150204 | 54 | 94 | 0.0 | 0.0 | 0.00 | 0.00 | 0.00 | 86 | 1016.0 |
| 20260906143704 | 53 | 94 | 0.0 | 0.0 | 0.00 | 0.00 | 0.00 | 88 | 1016.1 |
| 20260906143204 | 53 | 94 | 0.0 | 1.7 | 0.00 | 0.00 | 0.00 | 87 | 1016.0 |
| 20260906140204 | 53 | 94 | 0.9 | 2.6 | 0.00 | 0.00 | 0.00 | 87 | 1015.9 |
| 20260906133204 | 53 | 117 | 0.0 | 1.7 | 0.00 | 0.00 | 0.00 | 86 | 1015.8 |
| 20260906130704 | 54 | 80 | 0.9 | 0.9 | 0.00 | 0.00 | 0.00 | 84 | 1015.9 |
| 20260906130204 | 54 | 80 | 0.0 | 2.6 | 0.00 | 0.00 | 0.00 | 84 | 1015.9 |
| 20260906123703 | 54 | 120 | 0.9 | 2.6 | 0.00 | 0.00 | 0.00 | 87 | 1016.0 |
| 20260906120703 | 53 | 69 | 0.0 | 0.0 | 0.00 | 0.00 | 0.00 | 88 | 1015.8 |
| 20260906113703 | 54 | 69 | 0.0 | 0.0 | 0.00 | 0.00 | 0.00 | 87 | 1016.0 |
| 20260906113204 | 54 | 69 | 0.0 | 0.0 | 0.00 | 0.00 | 0.00 | 87 | 1016.1 |
| 20260906110704 | 55 | 69 | 0.0 | 0.0 | 0.00 | 0.00 | 0.00 | 87 | 1016.0 |
| 20260906110204 | 54 | 69 | 0.0 | 2.6 | 0.00 | 0.00 | 0.00 | 87 | 1016.0 |
| 20260906103704 | 55 | 33 | 0.9 | 1.7 | 0.00 | 0.00 | 0.00 | 87 | 1016.0 |
| 20260906103204 | 56 | 33 | 0.0 | 1.7 | 0.00 | 0.00 | 0.00 | 87 | 1015.9 |
| 20260906100704 | 56 | 33 | 0.0 | 0.0 | 0.00 | 0.00 | 0.00 | 88 | 1016.0 |
| 20260906100203 | 56 | 33 | 0.0 | 0.0 | 0.00 | 0.00 | 0.00 | 88 | 1016.0 |
| 20260906093703 | 56 | 33 | 0.0 | 0.0 | 0.00 | 0.00 | 0.00 | 87 | 1015.9 |
| 20260906093204 | 56 | 33 | 0.0 | 0.0 | 0.00 | 0.00 | 0.00 | 87 | 1015.9 |
| 20260906090704 | 58 | 33 | 0.0 | 1.7 | 0.00 | 0.00 | 0.00 | 86 | 1015.9 |
| 20260906090204 | 57 | 33 | 0.0 | 2.6 | 0.00 | 0.00 | 0.00 | 86 | 1015.9 |
| 20260906083204 | 56 | 71 | 0.0 | 0.0 | 0.00 | 0.00 | 0.00 | 85 | 1016.0 |
| 20260906080203 | 56 | 71 | 0.0 | 0.0 | 0.00 | 0.00 | 0.00 | 84 | 1016.0 |
| 20260906073704 | 57 | 71 | 0.0 | 0.9 | 0.00 | 0.00 | 0.00 | 83 | 1015.9 |
| 20260906073204 | 57 | 71 | 0.9 | 2.6 | 0.00 | 0.00 | 0.00 | 83 | 1016.1 |
| 20260906070703 | 58 | 71 | 1.7 | 2.6 | 0.00 | 0.00 | 0.00 | 82 | 1016.2 |
| 20260906070204 | 58 | 71 | 1.7 | 2.6 | 0.00 | 0.00 | 0.00 | 82 | 1016.2 |
| 20260906063704 | 58 | 71 | 0.9 | 2.6 | 0.00 | 0.00 | 0.00 | 82 | 1016.2 |
| 20260906063203 | 58 | 71 | 0.9 | 2.6 | 0.00 | 0.00 | 0.00 | 82 | 1016.3 |
| 20260906060704 | 59 | 42 | 0.0 | 0.0 | 0.00 | 0.00 | 0.00 | 78 | 1016.3 |
| 20260906060204 | 59 | 42 | 0.0 | 0.0 | 0.00 | 0.00 | 0.00 | 79 | 1016.3 |
| 20260906053704 | 60 | 42 | 0.0 | 0.0 | 0.00 | 0.00 | 0.00 | 78 | 1016.4 |
| 20260906053204 | 60 | 42 | 0.0 | 0.0 | 0.00 | 0.00 | 0.00 | 78 | 1016.5 |
| 20260906050203 | 61 | 42 | 0.0 | 0.0 | 0.00 | 0.00 | 0.00 | 77 | 1016.6 |
| 20260906043704 | 61 | 42 | 0.0 | 0.0 | 0.00 | 0.00 | 0.00 | 77 | 1016.5 |
| 20260906043204 | 61 | 42 | 0.0 | 0.0 | 0.00 | 0.00 | 0.00 | 77 | 1016.6 |
| 20260906040703 | 63 | 42 | 0.0 | 0.0 | 0.00 | 0.00 | 0.00 | 72 | 1016.7 |
| 20260906040204 | 63 | 42 | 0.0 | 2.6 | 0.00 | 0.00 | 0.00 | 72 | 1016.6 |
| 20260906033704 | 63 | 325 | 0.0 | 0.0 | 0.00 | 0.00 | 0.00 | 73 | 1016.7 |
| 20260906033203 | 64 | 323 | 0.0 | 1.7 | 0.00 | 0.00 | 0.00 | 72 | 1016.6 |
| 20260906030704 | 65 | 26 | 0.0 | 1.7 | 0.00 | 0.00 | 0.00 | 68 | 1016.4 |
| 20260906030204 | 65 | 26 | 0.9 | 1.7 | 0.00 | 0.00 | 0.00 | 68 | 1016.4 |
| 20260906023203 | 67 | 26 | 0.0 | 2.6 | 0.00 | 0.00 | 0.00 | 63 | 1016.2 |
| 20260906020704 | 69 | 26 | 0.0 | 0.0 | 0.00 | 0.00 | 0.00 | 58 | 1016.2 |
| 20260906013703 | 72 | 15 | 1.7 | 4.3 | 0.00 | 0.00 | 0.00 | 54 | 1016.1 |
| 20260906013204 | 72 | 306 | 1.7 | 2.6 | 0.00 | 0.00 | 0.00 | 53 | 1016.1 |
| 20260906010704 | 73 | 110 | 1.7 | 2.6 | 0.00 | 0.00 | 0.00 | 50 | 1016.0 |
| 20260906010205 | 73 | 136 | 1.7 | 5.2 | 0.00 | 0.00 | 0.00 | 50 | 1016.0 |
| 20260906003704 | 73 | 304 | 0.9 | 1.7 | 0.00 | 0.00 | 0.00 | 51 | 1016.0 |
| 20260906003204 | 74 | 321 | 0.9 | 2.6 | 0.00 | 0.00 | 0.00 | 50 | 1016.0 |
| 20260906000704 | 71 | 253 | 0.9 | 1.7 | 0.00 | 0.00 | 0.00 | 53 | 1016.0 |
| 20260906000204 | 71 | 242 | 0.9 | 5.2 | 0.00 | 0.00 | 0.00 | 54 | 1016.0 |
| 20260905233703 | 72 | 215 | 0.9 | 2.6 | 0.00 | 0.00 | 0.00 | 52 | 1016.1 |
| 20260905233204 | 72 | 355 | 0.0 | 2.6 | 0.00 | 0.00 | 0.00 | 52 | 1016.1 |
| 20260905230704 | 73 | 344 | 1.7 | 2.6 | 0.00 | 0.00 | 0.00 | 49 | 1016.3 |
| 20260905230204 | 72 | 7 | 0.9 | 2.6 | 0.00 | 0.00 | 0.00 | 53 | 1016.4 |